Time;durP1;ratioP1;P1;durP2;ratioP2;P2;SDS_P1;SDS_P2;PMS_P1;PMS_P2;Temp;Humidity;BMP_temperature;BMP_pressure;BME280_temperature;BME280_humidity;BME280_pressure;Samples;Min_cycle;Max_cycle;Signal;HPM_P1;HPM_P2
2021/07/28 00:02:53;;;;;;;26.00;11.32;;;;;;;;;;4876936;29;20052;-67
2021/07/28 00:05:57;;;;;;;26.73;10.70;;;;;;;;;;4876910;29;20052;-66
2021/07/28 00:09:01;;;;;;;20.58;11.50;;;;;;;;;;4876889;29;20508;-66
2021/07/28 00:12:06;;;;;;;18.20;11.30;;;;;;;;;;4876630;29;20052;-65
2021/07/28 00:15:11;;;;;;;22.80;11.98;;;;;;;;;;4876500;29;20528;-65
2021/07/28 00:18:31;;;;;;;19.70;11.73;;;;;;;;;;4876694;29;20158;-66
2021/07/28 00:24:59;;;;;;;26.65;12.15;;;;;;;;;;4876768;29;20048;-66
2021/07/28 00:28:05;;;;;;;21.65;11.57;;;;;;;;;;4876763;29;20048;-67
2021/07/28 00:31:09;;;;;;;18.23;12.18;;;;;;;;;;4876514;29;20048;-66
2021/07/28 00:34:13;;;;;;;25.55;12.40;;;;;;;;;;4878948;29;20044;-66
2021/07/28 00:37:17;;;;;;;21.58;12.77;;;;;;;;;;4880031;29;20409;-66
2021/07/28 00:40:21;;;;;;;27.67;12.38;;;;;;;;;;4879871;29;20528;-68
2021/07/28 00:43:26;;;;;;;25.10;13.15;;;;;;;;;;4880035;29;20052;-66
2021/07/28 00:46:30;;;;;;;22.52;12.93;;;;;;;;;;4879929;29;20069;-67
2021/07/28 00:49:34;;;;;;;25.50;12.95;;;;;;;;;;4879864;29;20414;-67
2021/07/28 00:52:39;;;;;;;26.58;13.80;;;;;;;;;;4878806;29;20063;-66
2021/07/28 00:55:44;;;;;;;33.63;14.38;;;;;;;;;;4879726;29;20437;-66
2021/07/28 00:58:49;;;;;;;28.88;13.35;;;;;;;;;;4879581;29;20044;-66
2021/07/28 01:01:53;;;;;;;46.92;14.57;;;;;;;;;;4879619;29;20119;-66
2021/07/28 01:04:57;;;;;;;31.50;13.43;;;;;;;;;;4878792;29;20057;-66
2021/07/28 01:08:02;;;;;;;33.08;13.57;;;;;;;;;;4879476;29;20048;-65
2021/07/28 01:11:07;;;;;;;26.73;13.98;;;;;;;;;;4879253;29;20051;-67
2021/07/28 01:14:11;;;;;;;37.72;14.45;;;;;;;;;;4878658;29;20061;-65
2021/07/28 01:17:16;;;;;;;34.90;14.30;;;;;;;;;;4879463;29;20044;-66
2021/07/28 01:20:22;;;;;;;27.40;14.23;;;;;;;;;;4879160;29;20541;-66
2021/07/28 01:23:27;;;;;;;28.48;14.90;;;;;;;;;;4879201;29;20069;-66
2021/07/28 01:26:32;;;;;;;26.65;14.32;;;;;;;;;;4879196;29;20052;-65
2021/07/28 01:29:36;;;;;;;24.95;15.00;;;;;;;;;;4879063;29;20040;-66
2021/07/28 01:32:41;;;;;;;31.65;14.55;;;;;;;;;;4878977;29;20068;-67
2021/07/28 01:35:45;;;;;;;28.27;14.50;;;;;;;;;;4879255;29;20044;-67
2021/07/28 01:38:50;;;;;;;34.78;15.43;;;;;;;;;;4878862;29;20056;-66
2021/07/28 01:41:58;;;;;;;28.88;15.00;;;;;;;;;;4878740;29;20048;-66
2021/07/28 01:45:03;;;;;;;29.38;14.52;;;;;;;;;;4878487;29;20056;-66
2021/07/28 01:48:07;;;;;;;33.13;16.08;;;;;;;;;;4878911;29;20048;-66
2021/07/28 01:51:12;;;;;;;29.83;15.55;;;;;;;;;;4878667;29;20068;-67
2021/07/28 01:54:17;;;;;;;31.45;15.38;;;;;;;;;;4878652;29;20047;-66
2021/07/28 01:57:21;;;;;;;30.55;15.80;;;;;;;;;;4878513;29;20044;-66
2021/07/28 02:00:26;;;;;;;30.27;15.90;;;;;;;;;;4878340;29;20056;-66
2021/07/28 02:03:30;;;;;;;27.65;15.98;;;;;;;;;;4877479;29;20508;-66
2021/07/28 02:06:34;;;;;;;25.35;16.23;;;;;;;;;;4877563;29;20405;-66
2021/07/28 02:09:39;;;;;;;42.85;17.38;;;;;;;;;;4877413;29;20044;-66
2021/07/28 02:12:43;;;;;;;31.63;16.30;;;;;;;;;;4878116;29;20052;-66
2021/07/28 02:15:48;;;;;;;30.65;16.10;;;;;;;;;;4878448;29;20397;-66
2021/07/28 02:18:52;;;;;;;28.45;16.20;;;;;;;;;;4877965;29;20064;-66
2021/07/28 02:21:56;;;;;;;28.00;14.98;;;;;;;;;;4878049;29;20060;-66
2021/07/28 02:25:01;;;;;;;24.85;16.05;;;;;;;;;;4877996;29;20044;-66
2021/07/28 02:28:06;;;;;;;32.03;15.15;;;;;;;;;;4877963;29;20052;-66
2021/07/28 02:31:10;;;;;;;30.88;15.50;;;;;;;;;;4877774;29;20048;-65
2021/07/28 02:34:15;;;;;;;32.75;15.93;;;;;;;;;;4877843;29;20044;-66
2021/07/28 02:37:19;;;;;;;28.67;15.55;;;;;;;;;;4877632;29;20056;-66
2021/07/28 02:40:23;;;;;;;23.25;14.95;;;;;;;;;;4877452;29;20517;-66
2021/07/28 02:43:28;;;;;;;33.10;15.00;;;;;;;;;;4877553;29;20048;-66
2021/07/28 02:46:32;;;;;;;25.05;14.80;;;;;;;;;;4877477;29;20073;-66
2021/07/28 02:49:38;;;;;;;27.25;15.25;;;;;;;;;;4877694;29;20044;-66
2021/07/28 02:52:42;;;;;;;30.25;15.90;;;;;;;;;;4877583;29;20397;-66
2021/07/28 02:55:46;;;;;;;28.00;14.40;;;;;;;;;;4876638;29;20048;-66
2021/07/28 02:58:50;;;;;;;27.45;15.20;;;;;;;;;;4877248;29;20056;-66
2021/07/28 03:01:55;;;;;;;21.48;14.02;;;;;;;;;;4877151;29;20063;-66
2021/07/28 03:04:59;;;;;;;25.60;14.68;;;;;;;;;;4877258;29;20405;-67
2021/07/28 03:08:03;;;;;;;23.90;15.20;;;;;;;;;;4877158;29;20056;-67
2021/07/28 03:11:07;;;;;;;26.77;14.85;;;;;;;;;;4877081;29;20406;-66
2021/07/28 03:14:12;;;;;;;25.80;15.18;;;;;;;;;;4877055;29;20076;-66
2021/07/28 03:17:17;;;;;;;30.10;15.20;;;;;;;;;;4877123;29;20052;-66
2021/07/28 03:20:22;;;;;;;24.02;14.30;;;;;;;;;;4877019;29;20518;-66
2021/07/28 03:23:26;;;;;;;29.92;15.32;;;;;;;;;;4877471;29;20047;-66
2021/07/28 03:26:31;;;;;;;21.65;14.10;;;;;;;;;;4877093;29;20147;-66
2021/07/28 03:29:35;;;;;;;27.27;15.52;;;;;;;;;;4876296;29;20513;-66
2021/07/28 03:32:39;;;;;;;28.55;15.68;;;;;;;;;;4877007;29;20052;-66
2021/07/28 03:35:44;;;;;;;23.45;15.20;;;;;;;;;;4876961;29;20044;-66
2021/07/28 03:38:48;;;;;;;29.15;14.27;;;;;;;;;;4876121;29;20048;-66
2021/07/28 03:41:52;;;;;;;26.17;15.00;;;;;;;;;;4876970;29;20061;-66
2021/07/28 03:44:57;;;;;;;24.20;16.05;;;;;;;;;;4877119;29;20069;-66
2021/07/28 03:48:02;;;;;;;27.58;14.80;;;;;;;;;;4876987;29;20048;-66
2021/07/28 03:51:07;;;;;;;27.45;16.10;;;;;;;;;;4877301;29;20052;-66
2021/07/28 03:54:11;;;;;;;36.28;15.82;;;;;;;;;;4876892;29;20413;-68
2021/07/28 03:57:15;;;;;;;31.00;16.90;;;;;;;;;;4875984;29;20061;-66
2021/07/28 04:00:20;;;;;;;35.17;15.48;;;;;;;;;;4875864;29;20056;-66
2021/07/28 04:03:24;;;;;;;27.15;15.55;;;;;;;;;;4876764;29;20405;-65
2021/07/28 04:06:29;;;;;;;28.48;16.13;;;;;;;;;;4876604;29;20158;-66
2021/07/28 04:09:33;;;;;;;33.40;16.13;;;;;;;;;;4880604;29;20052;-66
2021/07/28 04:12:38;;;;;;;33.35;15.60;;;;;;;;;;4880161;29;20069;-67
2021/07/28 04:15:43;;;;;;;34.47;15.60;;;;;;;;;;4880600;29;20076;-67
2021/07/28 04:18:47;;;;;;;30.25;15.15;;;;;;;;;;4880189;29;20052;-67
2021/07/28 04:21:52;;;;;;;29.08;15.55;;;;;;;;;;4880528;29;20123;-66
2021/07/28 04:24:56;;;;;;;33.05;14.85;;;;;;;;;;4880297;29;20048;-66
2021/07/28 04:28:00;;;;;;;26.33;15.45;;;;;;;;;;4880386;29;20048;-65
2021/07/28 04:31:05;;;;;;;29.17;15.40;;;;;;;;;;4880207;29;20082;-65
2021/07/28 04:34:09;;;;;;;28.90;16.00;;;;;;;;;;4880431;29;20041;-66
2021/07/28 04:37:15;;;;;;;26.50;16.23;;;;;;;;;;4879963;29;20048;-63
2021/07/28 04:40:20;;;;;;;31.10;16.50;;;;;;;;;;4879758;29;20414;-64
2021/07/28 04:43:24;;;;;;;34.42;17.38;;;;;;;;;;4879952;29;20068;-65
2021/07/28 04:46:28;;;;;;;32.13;15.98;;;;;;;;;;4879808;29;20055;-64
2021/07/28 04:49:33;;;;;;;39.35;17.20;;;;;;;;;;4879950;29;20044;-63
2021/07/28 04:52:37;;;;;;;39.35;19.35;;;;;;;;;;4880620;29;20068;-68
2021/07/28 04:55:42;;;;;;;38.50;19.92;;;;;;;;;;4880409;29;20044;-70
2021/07/28 04:58:46;;;;;;;38.83;18.95;;;;;;;;;;4880098;29;20051;-69
2021/07/28 05:01:51;;;;;;;38.67;18.45;;;;;;;;;;4880484;29;20056;-69
2021/07/28 05:04:55;;;;;;;47.67;18.10;;;;;;;;;;4880320;29;20044;-69
2021/07/28 05:08:00;;;;;;;50.47;18.30;;;;;;;;;;4880047;29;20305;-69
2021/07/28 05:11:04;;;;;;;58.55;20.23;;;;;;;;;;4879336;29;20048;-69
2021/07/28 05:14:08;;;;;;;62.08;19.38;;;;;;;;;;4879862;29;20048;-69
2021/07/28 05:17:13;;;;;;;54.05;18.33;;;;;;;;;;4879673;29;20052;-68
2021/07/28 05:20:19;;;;;;;44.65;17.13;;;;;;;;;;4879364;29;20312;-67
2021/07/28 05:23:23;;;;;;;36.33;16.40;;;;;;;;;;4880133;29;20044;-67
2021/07/28 05:26:27;;;;;;;28.80;15.82;;;;;;;;;;4880019;29;20056;-69
2021/07/28 05:29:32;;;;;;;44.20;16.67;;;;;;;;;;4880238;29;20048;-68
2021/07/28 05:32:36;;;;;;;44.67;16.25;;;;;;;;;;4879034;29;20052;-68
2021/07/28 05:35:47;;;;;;;29.67;14.75;;;;;;;;;;4878987;29;20060;-66
2021/07/28 05:38:51;;;;;;;33.22;15.50;;;;;;;;;;4879448;29;20461;-67
2021/07/28 05:41:57;;;;;;;39.92;17.02;;;;;;;;;;4878121;29;20063;-67
2021/07/28 05:45:02;;;;;;;41.85;17.27;;;;;;;;;;4878724;29;20048;-66
2021/07/28 05:48:06;;;;;;;49.05;17.42;;;;;;;;;;4878600;29;20052;-67
2021/07/28 05:51:10;;;;;;;40.40;18.02;;;;;;;;;;4879008;29;20060;-68
2021/07/28 05:54:14;;;;;;;43.05;18.80;;;;;;;;;;4878176;29;20044;-66
2021/07/28 05:57:19;;;;;;;43.75;18.73;;;;;;;;;;4879091;29;20072;-68
2021/07/28 06:00:23;;;;;;;51.03;21.38;;;;;;;;;;4878911;29;20064;-67
2021/07/28 06:03:28;;;;;;;48.40;19.88;;;;;;;;;;4880730;29;20564;-67
2021/07/28 06:06:32;;;;;;;53.30;22.38;;;;;;;;;;4877618;29;20071;-69
2021/07/28 06:09:37;;;;;;;52.78;21.40;;;;;;;;;;4877631;29;20044;-68
2021/07/28 06:12:42;;;;;;;57.28;21.05;;;;;;;;;;4878766;29;20053;-67
2021/07/28 06:15:48;;;;;;;60.13;22.60;;;;;;;;;;4878503;29;20052;-70
2021/07/28 06:18:52;;;;;;;58.35;24.20;;;;;;;;;;4878843;29;20044;-69
2021/07/28 06:21:57;;;;;;;55.13;22.13;;;;;;;;;;4857059;29;20068;-67
2021/07/28 06:25:01;;;;;;;54.90;23.48;;;;;;;;;;4856592;29;20067;-69
2021/07/28 06:28:06;;;;;;;44.45;22.50;;;;;;;;;;4877709;29;20225;-68
2021/07/28 06:31:10;;;;;;;58.72;23.45;;;;;;;;;;4877418;29;20509;-67
2021/07/28 06:34:14;;;;;;;43.95;19.83;;;;;;;;;;4879192;29;20048;-69
2021/07/28 06:37:19;;;;;;;37.90;20.55;;;;;;;;;;4878190;29;20060;-68
2021/07/28 06:40:23;;;;;;;41.97;19.15;;;;;;;;;;4878260;29;20520;-67
2021/07/28 06:43:27;;;;;;;41.00;17.88;;;;;;;;;;4878143;29;20060;-68
2021/07/28 06:46:33;;;;;;;37.33;17.35;;;;;;;;;;4867700;29;20401;-66
2021/07/28 06:49:38;;;;;;;38.55;17.30;;;;;;;;;;4877850;29;20052;-67
2021/07/28 06:52:42;;;;;;;37.72;15.38;;;;;;;;;;4878231;29;20214;-69
2021/07/28 06:55:46;;;;;;;33.05;15.90;;;;;;;;;;4877327;29;20063;-66
2021/07/28 06:58:51;;;;;;;34.78;15.63;;;;;;;;;;4876969;29;20056;-66
2021/07/28 07:01:55;;;;;;;42.75;16.23;;;;;;;;;;4876883;29;20052;-68
2021/07/28 07:04:59;;;;;;;38.70;17.13;;;;;;;;;;4877973;29;20047;-68
2021/07/28 07:08:03;;;;;;;46.00;15.38;;;;;;;;;;4877203;29;20060;-69
2021/07/28 07:11:08;;;;;;;36.50;14.48;;;;;;;;;;4878148;29;20044;-67
2021/07/28 07:14:12;;;;;;;37.33;14.57;;;;;;;;;;4877925;29;20060;-69
2021/07/28 07:17:17;;;;;;;43.85;15.20;;;;;;;;;;4877046;29;20056;-68
2021/07/28 07:20:21;;;;;;;33.92;14.40;;;;;;;;;;4878823;29;20139;-68
2021/07/28 07:23:27;;;;;;;32.95;14.00;;;;;;;;;;4878482;29;20048;-65
2021/07/28 07:26:31;;;;;;;49.90;14.35;;;;;;;;;;4865588;29;20052;-67
2021/07/28 07:29:36;;;;;;;42.15;14.18;;;;;;;;;;4876819;29;20052;-67
2021/07/28 07:32:40;;;;;;;35.47;14.68;;;;;;;;;;4877665;29;20040;-69
2021/07/28 07:35:44;;;;;;;45.28;16.13;;;;;;;;;;4877075;29;20048;-67
2021/07/28 07:38:49;;;;;;;34.70;14.93;;;;;;;;;;4878800;29;20068;-67
2021/07/28 07:41:53;;;;;;;29.55;12.70;;;;;;;;;;4879088;29;20405;-68
2021/07/28 07:44:58;;;;;;;30.92;12.73;;;;;;;;;;4881886;29;20162;-68
2021/07/28 07:48:03;;;;;;;20.95;11.60;;;;;;;;;;4880817;29;20049;-68
2021/07/28 07:51:07;;;;;;;32.08;12.52;;;;;;;;;;4880393;29;20457;-68
2021/07/28 07:54:12;;;;;;;20.75;11.93;;;;;;;;;;4881277;29;20064;-67
2021/07/28 07:57:16;;;;;;;21.15;11.32;;;;;;;;;;4881294;29;20052;-67
2021/07/28 08:00:21;;;;;;;24.85;11.30;;;;;;;;;;4880776;29;20060;-67
2021/07/28 08:03:25;;;;;;;24.52;12.63;;;;;;;;;;4882290;29;20036;-67
2021/07/28 08:06:30;;;;;;;17.42;11.50;;;;;;;;;;4881649;29;20049;-68
2021/07/28 08:09:34;;;;;;;27.92;11.75;;;;;;;;;;4869229;29;20044;-67
2021/07/28 08:12:38;;;;;;;22.17;11.27;;;;;;;;;;4881496;29;20056;-68
2021/07/28 08:15:43;;;;;;;19.80;11.68;;;;;;;;;;4880710;29;20055;-66
2021/07/28 08:18:48;;;;;;;20.83;11.18;;;;;;;;;;4881128;29;20081;-69
2021/07/28 08:21:52;;;;;;;22.02;11.00;;;;;;;;;;4880682;29;20516;-68
2021/07/28 08:24:57;;;;;;;25.55;12.38;;;;;;;;;;4880907;29;20047;-69
2021/07/28 08:28:01;;;;;;;22.02;11.18;;;;;;;;;;4881358;29;20441;-66
2021/07/28 08:31:07;;;;;;;27.67;13.00;;;;;;;;;;4880565;29;20300;-66
2021/07/28 08:34:12;;;;;;;17.33;11.30;;;;;;;;;;4880833;29;20064;-71
2021/07/28 08:37:40;;;;;;;23.80;12.13;;;;;;;;;;4864088;29;20513;-68
2021/07/28 08:40:49;;;;;;;21.15;10.88;;;;;;;;;;4880903;29;20048;-68
2021/07/28 08:43:57;;;;;;;21.58;11.95;;;;;;;;;;4881134;29;20048;-70
2021/07/28 08:47:01;;;;;;;18.77;10.75;;;;;;;;;;4879818;29;20052;-67
2021/07/28 08:50:07;;;;;;;21.08;10.57;;;;;;;;;;4881009;29;20056;-68
2021/07/28 08:53:12;;;;;;;21.92;10.73;;;;;;;;;;4879928;29;20501;-68
2021/07/28 08:56:17;;;;;;;22.90;10.65;;;;;;;;;;4880799;29;20052;-67
2021/07/28 08:59:25;;;;;;;24.20;11.38;;;;;;;;;;4879911;29;20051;-67
2021/07/28 09:02:30;;;;;;;25.05;11.73;;;;;;;;;;4879347;29;20076;-68
2021/07/28 09:05:41;;;;;;;24.92;11.05;;;;;;;;;;4880419;29;20048;-67
2021/07/28 09:08:45;;;;;;;36.55;10.20;;;;;;;;;;4880668;29;20056;-67
2021/07/28 09:12:00;;;;;;;12.35;9.32;;;;;;;;;;4880790;29;20052;-68
2021/07/28 09:15:07;;;;;;;12.13;8.30;;;;;;;;;;4879954;29;20084;-68
2021/07/28 09:18:28;;;;;;;14.10;9.23;;;;;;;;;;4880357;29;20072;-68
2021/07/28 09:21:33;;;;;;;16.23;9.95;;;;;;;;;;4880070;29;20060;-67
2021/07/28 09:24:38;;;;;;;25.40;9.75;;;;;;;;;;4879674;29;20044;-68
2021/07/28 09:27:47;;;;;;;18.02;9.98;;;;;;;;;;4878869;29;20052;-67
2021/07/28 09:30:52;;;;;;;24.10;12.15;;;;;;;;;;4879989;29;20048;-67
2021/07/28 09:34:08;;;;;;;18.88;10.63;;;;;;;;;;4879542;29;20052;-68
2021/07/28 09:37:17;;;;;;;13.35;9.77;;;;;;;;;;4879828;29;20060;-67
2021/07/28 09:40:26;;;;;;;22.80;10.50;;;;;;;;;;4878437;29;20521;-67
2021/07/28 09:43:30;;;;;;;34.10;12.82;;;;;;;;;;4879216;29;20068;-67
2021/07/28 09:46:36;;;;;;;14.18;9.68;;;;;;;;;;4880010;29;20065;-68
2021/07/28 09:49:44;;;;;;;17.00;10.00;;;;;;;;;;4879200;29;20052;-67
2021/07/28 09:52:51;;;;;;;15.20;9.10;;;;;;;;;;4878876;29;20040;-67
2021/07/28 09:56:27;;;;;;;22.08;9.30;;;;;;;;;;4878986;29;20056;-69
2021/07/28 09:59:40;;;;;;;19.48;8.52;;;;;;;;;;4878393;29;20278;-67
2021/07/28 10:03:04;;;;;;;16.52;8.25;;;;;;;;;;4861944;29;20060;-66
2021/07/28 10:06:09;;;;;;;25.77;10.40;;;;;;;;;;4878303;29;20043;-69
2021/07/28 10:09:16;;;;;;;15.70;9.10;;;;;;;;;;4879468;29;20508;-68
2021/07/28 10:12:20;;;;;;;19.50;8.77;;;;;;;;;;4879633;29;20052;-69
2021/07/28 10:15:26;;;;;;;16.67;8.15;;;;;;;;;;4879455;29;20064;-71
2021/07/28 10:18:30;;;;;;;23.58;10.02;;;;;;;;;;4880695;29;20103;-69
2021/07/28 10:21:35;;;;;;;22.67;9.95;;;;;;;;;;4868503;29;20545;-72
2021/07/28 10:24:40;;;;;;;17.98;10.10;;;;;;;;;;4868334;29;20044;-71
2021/07/28 10:27:46;;;;;;;19.75;10.48;;;;;;;;;;4880551;29;20044;-69
2021/07/28 10:31:12;;;;;;;30.70;10.70;;;;;;;;;;4883034;29;20052;-71
2021/07/28 10:34:23;;;;;;;32.63;9.43;;;;;;;;;;4882370;29;20052;-71
2021/07/28 10:37:30;;;;;;;16.38;9.60;;;;;;;;;;4879141;29;20071;-71
2021/07/28 10:40:48;;;;;;;19.88;9.93;;;;;;;;;;4879777;29;20060;-77
2021/07/28 10:44:12;;;;;;;20.73;9.02;;;;;;;;;;4881025;29;20043;-74
2021/07/28 10:47:16;;;;;;;20.20;8.43;;;;;;;;;;4882989;29;20052;-75
2021/07/28 10:53:47;;;;;;;16.27;7.38;;;;;;;;;;4879182;29;20524;-70
2021/07/28 10:57:38;;;;;;;21.23;8.60;;;;;;;;;;4878807;29;20047;-72
2021/07/28 11:00:52;;;;;;;17.17;8.77;;;;;;;;;;4877659;29;20126;-72
2021/07/28 11:04:18;;;;;;;17.83;7.78;;;;;;;;;;4879888;29;20044;-70
2021/07/28 11:07:42;;;;;;;14.75;9.05;;;;;;;;;;4878076;29;20044;-71
2021/07/28 11:10:55;;;;;;;27.73;9.68;;;;;;;;;;4880781;29;20514;-69
2021/07/28 11:14:00;;;;;;;14.00;8.70;;;;;;;;;;4879953;29;20048;-69
2021/07/28 11:17:04;;;;;;;22.92;8.38;;;;;;;;;;4878979;29;20048;-70
2021/07/28 11:20:09;;;;;;;23.58;9.05;;;;;;;;;;4878669;29;20068;-67
2021/07/28 11:26:30;;;;;;;18.33;7.90;;;;;;;;;;4879180;29;20067;-68
2021/07/28 11:29:35;;;;;;;24.90;8.77;;;;;;;;;;4880707;29;20044;-69
2021/07/28 11:32:39;;;;;;;25.83;9.00;;;;;;;;;;4880152;29;20536;-68
2021/07/28 11:35:45;;;;;;;34.63;9.68;;;;;;;;;;4880008;29;20512;-69
2021/07/28 11:38:49;;;;;;;24.25;9.68;;;;;;;;;;4879884;29;20056;-69
2021/07/28 11:42:03;;;;;;;27.63;9.93;;;;;;;;;;4878447;29;20056;-68
2021/07/28 11:45:07;;;;;;;24.90;9.80;;;;;;;;;;4877977;29;20041;-67
2021/07/28 11:48:34;;;;;;;24.95;10.32;;;;;;;;;;4878031;29;20052;-68
2021/07/28 11:51:38;;;;;;;24.52;9.98;;;;;;;;;;4877860;29;20061;-68
2021/07/28 11:54:43;;;;;;;33.90;13.10;;;;;;;;;;4866490;29;20042;-68
2021/07/28 11:57:48;;;;;;;18.95;9.80;;;;;;;;;;4877501;29;20071;-72
2021/07/28 12:00:52;;;;;;;23.05;9.95;;;;;;;;;;4877922;29;20537;-68
2021/07/28 12:04:05;;;;;;;20.65;9.77;;;;;;;;;;4878006;29;20390;-68
2021/07/28 12:07:13;;;;;;;19.73;10.50;;;;;;;;;;4878086;29;20052;-67
2021/07/28 12:10:25;;;;;;;27.15;10.10;;;;;;;;;;4877772;29;20051;-68
2021/07/28 12:13:45;;;;;;;28.20;10.20;;;;;;;;;;4877113;29;20059;-68
2021/07/28 12:16:50;;;;;;;23.52;10.13;;;;;;;;;;4877426;29;20056;-68
2021/07/28 12:19:57;;;;;;;17.52;9.90;;;;;;;;;;4877113;29;20048;-69
2021/07/28 12:23:03;;;;;;;16.00;9.88;;;;;;;;;;4877119;29;20052;-68
2021/07/28 12:26:07;;;;;;;19.67;10.30;;;;;;;;;;4878451;29;20056;-71
2021/07/28 12:29:11;;;;;;;22.58;10.75;;;;;;;;;;4882400;29;20052;-70
2021/07/28 12:32:16;;;;;;;18.77;9.02;;;;;;;;;;4881133;29;20052;-70
2021/07/28 12:35:20;;;;;;;27.85;9.93;;;;;;;;;;4881285;29;20385;-71
2021/07/28 12:38:25;;;;;;;32.05;10.27;;;;;;;;;;4881096;29;20472;-72
2021/07/28 12:41:29;;;;;;;16.15;9.60;;;;;;;;;;4882522;29;20437;-70
2021/07/28 12:44:33;;;;;;;14.63;10.85;;;;;;;;;;4881184;29;20048;-71
2021/07/28 12:47:38;;;;;;;12.50;9.32;;;;;;;;;;4882399;29;20044;-73
2021/07/28 12:50:42;;;;;;;32.33;11.10;;;;;;;;;;4883412;29;20052;-70
2021/07/28 12:53:48;;;;;;;24.40;9.02;;;;;;;;;;4881768;29;20048;-68
2021/07/28 12:56:53;;;;;;;16.10;9.13;;;;;;;;;;4881010;29;20131;-69
2021/07/28 12:59:57;;;;;;;23.20;8.88;;;;;;;;;;4880918;29;20064;-69
2021/07/28 13:03:04;;;;;;;16.98;10.15;;;;;;;;;;4882818;29;20515;-68
2021/07/28 13:06:09;;;;;;;20.08;9.10;;;;;;;;;;4881150;29;20048;-70
2021/07/28 13:09:13;;;;;;;17.05;8.43;;;;;;;;;;4880421;29;20048;-69
2021/07/28 13:12:18;;;;;;;21.65;8.48;;;;;;;;;;4881721;29;20052;-69
2021/07/28 13:15:25;;;;;;;18.90;8.35;;;;;;;;;;4881600;29;20060;-70
2021/07/28 13:18:30;;;;;;;11.40;7.95;;;;;;;;;;4882714;29;20417;-69
2021/07/28 13:21:34;;;;;;;22.33;9.02;;;;;;;;;;4881778;29;20069;-69
2021/07/28 13:24:38;;;;;;;13.00;8.75;;;;;;;;;;4881925;29;20122;-69
2021/07/28 13:27:42;;;;;;;8.90;7.55;;;;;;;;;;4880151;29;20052;-69
2021/07/28 13:30:47;;;;;;;12.55;8.25;;;;;;;;;;4879630;29;20049;-70
2021/07/28 13:33:51;;;;;;;10.48;7.68;;;;;;;;;;4879828;29;20060;-68
2021/07/28 13:36:57;;;;;;;10.55;8.25;;;;;;;;;;4882514;29;20055;-68
2021/07/28 13:40:08;;;;;;;11.70;7.43;;;;;;;;;;4878642;29;20052;-69
2021/07/28 13:43:13;;;;;;;10.35;7.30;;;;;;;;;;4881113;29;20061;-69
2021/07/28 13:46:17;;;;;;;15.85;7.72;;;;;;;;;;4881056;29;20052;-72
2021/07/28 13:49:23;;;;;;;17.55;8.23;;;;;;;;;;4881188;29;20053;-73
2021/07/28 13:52:27;;;;;;;15.80;7.75;;;;;;;;;;4881103;29;20060;-73
2021/07/28 13:55:32;;;;;;;16.27;7.68;;;;;;;;;;4879248;29;20052;-71
2021/07/28 13:58:36;;;;;;;21.65;7.22;;;;;;;;;;4881111;29;20063;-70
2021/07/28 14:01:40;;;;;;;22.50;7.70;;;;;;;;;;4882043;29;20056;-71
2021/07/28 14:04:47;;;;;;;18.50;7.68;;;;;;;;;;4881201;29;20136;-71
2021/07/28 14:07:54;;;;;;;16.63;8.02;;;;;;;;;;4880844;29;20401;-68
2021/07/28 14:11:07;;;;;;;15.23;7.18;;;;;;;;;;4880870;29;20593;-71
2021/07/28 14:14:15;;;;;;;18.40;7.28;;;;;;;;;;4881954;29;20516;-71
2021/07/28 14:17:20;;;;;;;21.40;7.50;;;;;;;;;;4884343;29;20048;-71
2021/07/28 14:20:26;;;;;;;14.55;7.15;;;;;;;;;;4879293;29;20064;-70
2021/07/28 14:23:30;;;;;;;18.30;7.35;;;;;;;;;;4869235;29;20051;-65
2021/07/28 14:26:34;;;;;;;73.53;65.07;;;;;;;;;;4879310;29;20425;-68
2021/07/28 14:29:41;;;;;;;20.38;14.07;;;;;;;;;;4878811;29;20055;-68
2021/07/28 14:32:46;;;;;;;14.88;7.00;;;;;;;;;;4879389;29;20048;-69
2021/07/28 14:35:50;;;;;;;12.82;6.95;;;;;;;;;;4880453;29;20060;-69
2021/07/28 14:38:56;;;;;;;16.33;6.82;;;;;;;;;;4880465;29;20048;-70
2021/07/28 14:42:01;;;;;;;16.75;7.80;;;;;;;;;;4878393;29;20075;-67
2021/07/28 14:45:06;;;;;;;15.35;7.45;;;;;;;;;;4878218;29;20051;-68
2021/07/28 14:48:10;;;;;;;18.13;8.40;;;;;;;;;;4870072;29;20051;-72
2021/07/28 14:51:17;;;;;;;20.08;8.00;;;;;;;;;;4878814;29;20052;-67
2021/07/28 14:54:25;;;;;;;22.13;8.55;;;;;;;;;;4880196;29;20052;-67
2021/07/28 14:57:29;;;;;;;18.58;7.68;;;;;;;;;;4878021;29;20044;-69
2021/07/28 15:00:36;;;;;;;21.38;7.30;;;;;;;;;;4878363;29;20544;-69
2021/07/28 15:03:41;;;;;;;17.85;7.40;;;;;;;;;;4878151;29;20064;-69
2021/07/28 15:06:45;;;;;;;12.10;6.80;;;;;;;;;;4877283;29;20048;-67
2021/07/28 15:09:50;;;;;;;14.55;7.93;;;;;;;;;;4877865;29;20040;-67
2021/07/28 15:12:54;;;;;;;15.27;7.97;;;;;;;;;;4877535;29;20044;-66
2021/07/28 15:15:59;;;;;;;18.02;8.02;;;;;;;;;;4878728;29;20056;-67
2021/07/28 15:19:09;;;;;;;15.30;7.70;;;;;;;;;;4878090;29;20044;-67
2021/07/28 15:22:13;;;;;;;13.38;6.88;;;;;;;;;;4877730;29;20056;-67
2021/07/28 15:25:36;;;;;;;12.18;7.43;;;;;;;;;;4880013;29;20052;-66
2021/07/28 15:28:41;;;;;;;17.13;8.18;;;;;;;;;;4877558;29;20057;-66
2021/07/28 15:31:46;;;;;;;28.35;10.32;;;;;;;;;;4876711;29;20048;-66
2021/07/28 15:34:50;;;;;;;13.20;7.60;;;;;;;;;;4877158;29;20405;-69
2021/07/28 15:37:56;;;;;;;15.73;8.10;;;;;;;;;;4877175;29;20048;-67
2021/07/28 15:41:00;;;;;;;18.38;7.63;;;;;;;;;;4877474;29;20064;-67
2021/07/28 15:44:06;;;;;;;14.40;8.65;;;;;;;;;;4877706;29;20667;-68
2021/07/28 15:47:10;;;;;;;20.85;8.65;;;;;;;;;;4877720;29;20083;-72
2021/07/28 15:50:15;;;;;;;16.30;7.53;;;;;;;;;;4879544;29;20398;-71
2021/07/28 15:53:19;;;;;;;22.50;7.82;;;;;;;;;;4880459;29;20048;-68
2021/07/28 15:56:23;;;;;;;16.50;7.53;;;;;;;;;;4879493;29;20052;-70
2021/07/28 15:59:28;;;;;;;13.63;7.50;;;;;;;;;;4878406;29;20520;-68
2021/07/28 16:02:32;;;;;;;16.17;8.13;;;;;;;;;;4883038;29;20083;-71
2021/07/28 16:05:37;;;;;;;22.40;7.78;;;;;;;;;;4882316;29;20040;-71
2021/07/28 16:08:42;;;;;;;14.38;7.90;;;;;;;;;;4881399;29;20115;-71
2021/07/28 16:11:46;;;;;;;19.80;8.05;;;;;;;;;;4880054;29;20044;-69
2021/07/28 16:15:01;;;;;;;18.55;8.05;;;;;;;;;;4880471;29;20217;-70
2021/07/28 16:18:11;;;;;;;22.85;8.30;;;;;;;;;;4880921;29;20036;-67
2021/07/28 16:21:17;;;;;;;15.80;7.22;;;;;;;;;;4880893;29;20048;-68
2021/07/28 16:24:28;;;;;;;20.30;10.07;;;;;;;;;;4881305;29;20055;-68
2021/07/28 16:27:33;;;;;;;18.52;7.93;;;;;;;;;;4880879;29;20056;-68
2021/07/28 16:30:38;;;;;;;26.23;8.30;;;;;;;;;;4880980;29;20067;-69
2021/07/28 16:33:42;;;;;;;17.05;7.40;;;;;;;;;;4881257;29;20068;-69
2021/07/28 16:36:47;;;;;;;12.02;8.15;;;;;;;;;;4881194;29;20057;-69
2021/07/28 16:39:51;;;;;;;19.73;10.60;;;;;;;;;;4881588;29;20047;-67
2021/07/28 16:42:56;;;;;;;25.20;8.23;;;;;;;;;;4881268;29;20060;-69
2021/07/28 16:46:02;;;;;;;20.05;7.60;;;;;;;;;;4881113;29;20044;-68
2021/07/28 16:49:06;;;;;;;25.38;8.70;;;;;;;;;;4870454;29;20052;-69
2021/07/28 16:52:10;;;;;;;14.98;7.32;;;;;;;;;;4881183;29;20085;-68
2021/07/28 16:55:15;;;;;;;20.88;8.20;;;;;;;;;;4882882;29;20417;-68
2021/07/28 16:58:20;;;;;;;20.27;7.63;;;;;;;;;;4879882;29;20044;-66
2021/07/28 17:01:24;;;;;;;18.67;7.38;;;;;;;;;;4879946;29;20059;-68
2021/07/28 17:04:29;;;;;;;22.48;7.38;;;;;;;;;;4878668;29;20068;-67
2021/07/28 17:07:33;;;;;;;21.55;8.18;;;;;;;;;;4879130;29;20044;-66
2021/07/28 17:10:37;;;;;;;17.90;7.82;;;;;;;;;;4879815;29;20111;-65
2021/07/28 17:13:42;;;;;;;18.30;7.38;;;;;;;;;;4879128;29;20508;-66
2021/07/28 17:16:47;;;;;;;20.58;7.18;;;;;;;;;;4879244;29;20508;-63
2021/07/28 17:19:51;;;;;;;27.83;7.03;;;;;;;;;;4879095;29;20048;-63
2021/07/28 17:22:55;;;;;;;19.88;7.60;;;;;;;;;;4879017;29;20521;-65
2021/07/28 17:25:59;;;;;;;24.70;7.60;;;;;;;;;;4879027;29;20060;-64
2021/07/28 17:29:04;;;;;;;17.88;7.45;;;;;;;;;;4878927;29;20048;-65
2021/07/28 17:32:08;;;;;;;33.92;8.45;;;;;;;;;;4878025;29;20504;-65
2021/07/28 17:35:29;;;;;;;20.38;6.95;;;;;;;;;;4878679;29;20047;-68
2021/07/28 17:38:37;;;;;;;19.52;6.65;;;;;;;;;;4878967;29;20048;-67
2021/07/28 17:41:44;;;;;;;20.13;7.75;;;;;;;;;;4878878;29;20056;-65
2021/07/28 17:44:48;;;;;;;29.33;7.70;;;;;;;;;;4878960;29;20504;-66
2021/07/28 17:47:52;;;;;;;27.65;8.15;;;;;;;;;;4877711;29;20155;-65
2021/07/28 17:50:57;;;;;;;15.75;8.75;;;;;;;;;;4878397;29;20071;-64
2021/07/28 17:54:01;;;;;;;24.60;8.73;;;;;;;;;;4878283;29;20048;-64
2021/07/28 17:57:05;;;;;;;20.55;8.32;;;;;;;;;;4878512;29;20055;-67
2021/07/28 18:00:10;;;;;;;24.20;7.93;;;;;;;;;;4877561;29;20048;-66
2021/07/28 18:03:37;;;;;;;28.02;8.57;;;;;;;;;;4878364;29;20056;-66
2021/07/28 18:06:42;;;;;;;24.20;11.38;;;;;;;;;;4878475;29;20067;-65
2021/07/28 18:09:48;;;;;;;28.55;13.75;;;;;;;;;;4878323;29;20055;-66
2021/07/28 18:12:52;;;;;;;33.47;14.30;;;;;;;;;;4877689;29;20055;-65
2021/07/28 18:15:56;;;;;;;38.65;14.68;;;;;;;;;;4878522;29;20402;-66
2021/07/28 18:19:01;;;;;;;29.48;15.15;;;;;;;;;;4878213;29;20138;-67